createdAt,value
2022-08-20T00:00:18.484Z,25.71
2022-08-20T00:02:56.188Z,25.88
2022-08-20T00:05:25.364Z,25.95
2022-08-20T00:07:52.834Z,25.79
2022-08-20T00:10:20.621Z,25.77
2022-08-20T00:12:49.312Z,25.86
2022-08-20T00:15:19.441Z,25.59
2022-08-20T00:17:46.728Z,25.82
2022-08-20T00:20:15.366Z,26.34
2022-08-20T00:22:42.720Z,26.36
2022-08-20T00:25:11.374Z,26.45
2022-08-20T00:27:38.976Z,25.74
2022-08-20T00:30:08.897Z,25.90
2022-08-20T00:32:43.431Z,26.14
2022-08-20T00:35:13.110Z,26.03
2022-08-20T00:37:40.503Z,26.13
2022-08-20T00:40:22.678Z,26.29
2022-08-20T00:42:52.338Z,26.35
2022-08-20T00:45:20.556Z,26.38
2022-08-20T00:47:51.494Z,26.70
2022-08-20T00:50:21.041Z,27.16
2022-08-20T00:52:50.924Z,27.14
2022-08-20T00:55:20.114Z,27.14
2022-08-20T00:58:00.446Z,26.88
2022-08-20T01:00:40.016Z,26.93
2022-08-20T01:03:09.935Z,26.74
2022-08-20T01:05:38.260Z,26.83
2022-08-20T01:08:06.191Z,27.16
2022-08-20T01:10:35.438Z,27.07
2022-08-20T01:13:08.527Z,27.31
2022-08-20T01:15:38.993Z,27.37
2022-08-20T01:18:16.605Z,27.78
2022-08-20T01:20:47.460Z,27.59
2022-08-20T01:23:34.921Z,27.36
2022-08-20T01:26:22.605Z,27.39
2022-08-20T01:28:49.910Z,27.55
2022-08-20T01:31:20.030Z,27.79
2022-08-20T01:33:48.142Z,27.54
2022-08-20T01:36:16.844Z,27.95
2022-08-20T01:38:54.271Z,27.67
2022-08-20T01:41:28.250Z,27.89
2022-08-20T01:43:57.168Z,27.64
2022-08-20T01:46:33.148Z,28.19
2022-08-20T01:49:12.382Z,28.08
2022-08-20T01:51:42.108Z,28.20
2022-08-20T01:54:09.507Z,28.26
2022-08-20T01:56:50.348Z,28.37
2022-08-20T01:59:17.726Z,28.23
2022-08-20T02:01:46.305Z,28.28
2022-08-20T02:04:15.481Z,28.64
2022-08-20T02:06:56.188Z,28.59
2022-08-20T02:09:26.581Z,28.60
2022-08-20T02:11:53.870Z,28.58
2022-08-20T02:14:21.396Z,28.82
2022-08-20T02:16:55.291Z,28.66
2022-08-20T02:19:25.919Z,29.02
2022-08-20T02:21:55.432Z,28.75
2022-08-20T02:24:22.786Z,28.70
2022-08-20T02:26:51.100Z,29.11
2022-08-20T02:29:18.567Z,29.33
2022-08-20T02:32:24.902Z,29.04
2022-08-20T02:34:36.469Z,29.33
2022-08-20T02:37:05.473Z,29.24
2022-08-20T02:39:33.224Z,29.52
2022-08-20T02:42:01.924Z,29.10
2022-08-20T02:44:29.797Z,29.36
2022-08-20T02:46:57.152Z,29.07
2022-08-20T02:49:24.611Z,28.91
2022-08-20T02:51:51.880Z,29.33
2022-08-20T02:54:19.165Z,29.24
2022-08-20T02:56:46.613Z,29.19
2022-08-20T02:59:19.560Z,29.07
2022-08-20T03:01:59.824Z,29.26
2022-08-20T03:04:29.489Z,29.45
2022-08-20T03:06:57.032Z,29.94
2022-08-20T03:09:24.593Z,29.63
2022-08-20T03:11:52.917Z,29.39
2022-08-20T03:14:20.327Z,29.72
2022-08-20T03:16:47.539Z,29.99
2022-08-20T03:19:14.846Z,29.81
2022-08-20T03:21:42.669Z,30.05
2022-08-20T03:24:10.028Z,29.88
2022-08-20T03:26:37.599Z,29.92
2022-08-20T03:29:05.004Z,29.97
2022-08-20T03:31:32.251Z,30.17
2022-08-20T03:33:59.919Z,30.15
2022-08-20T03:36:29.017Z,30.42
2022-08-20T03:39:02.989Z,30.33
2022-08-20T03:41:32.260Z,30.12
2022-08-20T03:43:59.592Z,29.85
2022-08-20T03:46:27.119Z,29.91
2022-08-20T03:48:59.636Z,30.15
2022-08-20T03:51:29.298Z,29.97
2022-08-20T03:53:57.016Z,30.04
2022-08-20T03:56:24.445Z,30.07
2022-08-20T03:58:51.685Z,30.15
2022-08-20T04:01:44.399Z,29.99
2022-08-20T04:04:06.667Z,29.76
2022-08-20T04:06:40.415Z,29.99
2022-08-20T04:09:09.699Z,30.42
2022-08-20T04:11:40.265Z,30.49
2022-08-20T04:14:07.681Z,30.48
2022-08-20T04:16:37.870Z,30.15
2022-08-20T04:19:05.239Z,30.26
2022-08-20T04:21:33.587Z,29.98
2022-08-20T04:24:02.526Z,30.01
2022-08-20T04:26:30.488Z,30.22
2022-08-20T04:28:57.796Z,30.28
2022-08-20T04:31:25.618Z,30.21
2022-08-20T04:33:53.001Z,30.09
2022-08-20T04:36:20.309Z,30.41
2022-08-20T04:38:49.674Z,30.59
2022-08-20T04:41:23.711Z,30.25
2022-08-20T04:43:56.003Z,30.09
2022-08-20T04:46:26.152Z,30.44
2022-08-20T04:48:53.879Z,30.63
2022-08-20T04:51:23.066Z,30.57
2022-08-20T04:53:51.959Z,30.55
2022-08-20T04:56:23.943Z,30.44
2022-08-20T04:58:52.610Z,30.54
2022-08-20T05:01:20.364Z,30.47
2022-08-20T05:03:47.961Z,30.17
2022-08-20T05:06:16.463Z,29.94
2022-08-20T05:08:44.336Z,29.89
2022-08-20T05:11:33.517Z,29.95
2022-08-20T05:13:59.161Z,30.33
2022-08-20T05:16:26.727Z,30.41
2022-08-20T05:18:53.995Z,30.32
2022-08-20T05:21:21.704Z,30.44
2022-08-20T05:23:49.535Z,30.49
2022-08-20T05:26:20.371Z,30.48
2022-08-20T05:28:57.476Z,30.33
2022-08-20T05:31:31.271Z,30.17
2022-08-20T05:34:01.351Z,30.15
2022-08-20T05:36:28.704Z,30.02
2022-08-20T05:38:56.041Z,29.13
2022-08-20T05:41:29.310Z,29.23
2022-08-20T05:43:58.183Z,28.89
2022-08-20T05:46:25.595Z,28.76
2022-08-20T05:48:52.967Z,28.27
2022-08-20T05:51:20.215Z,28.25
2022-08-20T05:53:47.629Z,28.46
2022-08-20T05:56:14.872Z,28.74
2022-08-20T05:58:42.205Z,28.35
2022-08-20T06:01:09.530Z,28.52
2022-08-20T06:03:55.156Z,28.28
2022-08-20T06:06:45.641Z,28.67
2022-08-20T06:09:10.078Z,28.16
2022-08-20T06:11:37.631Z,27.78
2022-08-20T06:14:05.731Z,27.75
2022-08-20T06:16:33.382Z,27.42
2022-08-20T06:19:02.934Z,27.07
2022-08-20T06:21:30.409Z,27.57
2022-08-20T06:23:59.847Z,27.48
2022-08-20T06:26:30.741Z,27.42
2022-08-20T06:28:59.263Z,27.70
2022-08-20T06:31:27.620Z,27.83
2022-08-20T06:33:55.400Z,27.80
2022-08-20T06:36:22.919Z,27.59
2022-08-20T06:38:50.186Z,27.53
2022-08-20T06:41:17.472Z,27.73
2022-08-20T06:43:44.873Z,27.79
2022-08-20T06:46:13.012Z,27.66
2022-08-20T06:48:40.478Z,28.20
2022-08-20T06:51:07.908Z,28.03
2022-08-20T06:53:35.337Z,27.54
2022-08-20T06:56:02.936Z,27.46
2022-08-20T06:58:37.804Z,27.62
2022-08-20T07:01:09.910Z,28.11
2022-08-20T07:03:54.336Z,28.00
2022-08-20T07:06:25.514Z,28.27
2022-08-20T07:08:53.989Z,27.90
2022-08-20T07:11:26.563Z,27.73
2022-08-20T07:13:56.770Z,27.10
2022-08-20T07:16:24.741Z,28.58
2022-08-20T07:18:51.997Z,27.81
2022-08-20T07:21:19.365Z,28.78
2022-08-20T07:23:49.602Z,28.45
2022-08-20T07:26:17.506Z,27.54
2022-08-20T07:28:44.860Z,28.03
2022-08-20T07:31:31.350Z,28.09
2022-08-20T07:33:59.727Z,27.99
2022-08-20T07:36:27.238Z,27.56
2022-08-20T07:38:54.796Z,28.25
2022-08-20T07:41:24.400Z,27.94
2022-08-20T07:43:51.737Z,27.82
2022-08-20T07:46:21.721Z,27.79
2022-08-20T07:48:50.589Z,27.91
2022-08-20T07:51:20.188Z,28.00
2022-08-20T07:53:48.169Z,26.89
2022-08-20T07:56:19.363Z,27.07
2022-08-20T07:58:49.839Z,27.37
2022-08-20T08:01:22.242Z,28.32
2022-08-20T08:03:50.704Z,27.58
2022-08-20T08:06:28.977Z,28.03
2022-08-20T08:09:01.445Z,28.14
2022-08-20T08:11:28.816Z,27.12
2022-08-20T08:13:56.069Z,27.82
2022-08-20T08:16:23.471Z,28.39
2022-08-20T08:18:56.398Z,27.95
2022-08-20T08:21:24.782Z,28.06
2022-08-20T08:23:53.527Z,28.48
2022-08-20T08:26:22.446Z,28.34
2022-08-20T08:28:49.776Z,28.72
2022-08-20T08:31:17.129Z,28.18
2022-08-20T08:33:44.386Z,28.60
2022-08-20T08:36:13.386Z,28.27
2022-08-20T08:38:42.366Z,27.51
2022-08-20T08:41:18.859Z,28.68
2022-08-20T08:43:53.347Z,28.51
2022-08-20T08:46:24.332Z,28.10
2022-08-20T08:48:56.563Z,28.25
2022-08-20T08:51:30.197Z,28.61
2022-08-20T08:53:57.937Z,28.74
2022-08-20T08:56:27.130Z,28.45
2022-08-20T08:58:55.780Z,28.98
2022-08-20T09:01:55.465Z,28.41
2022-08-20T09:04:12.359Z,28.84
2022-08-20T09:06:40.637Z,28.92
2022-08-20T09:09:18.181Z,28.56
2022-08-20T09:11:47.383Z,28.83
2022-08-20T09:14:14.874Z,28.99
2022-08-20T09:16:52.943Z,28.30
2022-08-20T09:19:21.434Z,28.73
2022-08-20T09:21:48.897Z,29.16
2022-08-20T09:24:16.712Z,29.18
2022-08-20T09:26:44.005Z,28.99
2022-08-20T09:29:11.492Z,28.54
2022-08-20T09:31:39.609Z,29.47
2022-08-20T09:34:07.075Z,30.31
2022-08-20T09:36:35.391Z,29.23
2022-08-20T09:39:03.277Z,28.89
2022-08-20T09:41:31.105Z,29.22
2022-08-20T09:44:01.349Z,29.52
2022-08-20T09:46:28.626Z,28.94
2022-08-20T09:48:56.110Z,29.36
2022-08-20T09:51:23.669Z,29.77
2022-08-20T09:53:51.171Z,29.53
2022-08-20T09:56:18.637Z,29.32
2022-08-20T09:58:50.465Z,29.22
2022-08-20T10:01:19.308Z,28.62
2022-08-20T10:03:50.907Z,28.42
2022-08-20T10:06:20.338Z,28.93
2022-08-20T10:08:48.542Z,28.47
2022-08-20T10:11:15.998Z,28.60
2022-08-20T10:13:45.635Z,29.62
2022-08-20T10:16:13.145Z,29.24
2022-08-20T10:18:40.439Z,28.59
2022-08-20T10:21:11.637Z,28.62
2022-08-20T10:23:38.990Z,28.81
2022-08-20T10:26:07.699Z,29.49
2022-08-20T10:28:35.170Z,29.19
2022-08-20T10:31:02.449Z,30.31
2022-08-20T10:33:29.876Z,29.78
2022-08-20T10:36:05.548Z,30.01
2022-08-20T10:38:32.989Z,29.67
2022-08-20T10:41:00.347Z,29.15
2022-08-20T10:43:28.314Z,29.71
2022-08-20T10:45:55.735Z,31.33
2022-08-20T10:48:23.363Z,31.22
2022-08-20T10:50:50.601Z,29.46
2022-08-20T10:53:18.379Z,30.05
2022-08-20T10:55:45.701Z,29.59
2022-08-20T10:58:13.315Z,29.64
2022-08-20T11:00:41.132Z,29.08
2022-08-20T11:03:08.388Z,29.62
2022-08-20T11:05:35.715Z,30.06
2022-08-20T11:08:04.417Z,29.45
2022-08-20T11:10:34.073Z,29.46
2022-08-20T11:13:01.986Z,29.31
2022-08-20T11:15:29.708Z,29.72
2022-08-20T11:17:57.353Z,30.19
2022-08-20T11:20:27.672Z,29.99
2022-08-20T11:22:55.086Z,29.92
2022-08-20T11:25:22.385Z,29.53
2022-08-20T11:27:50.860Z,31.05
2022-08-20T11:30:20.302Z,31.47
2022-08-20T11:32:48.117Z,29.85
2022-08-20T11:38:04.340Z,29.85
2022-08-20T11:40:31.761Z,30.48
2022-08-20T11:43:14.179Z,30.14
2022-08-20T11:45:42.642Z,30.74
2022-08-20T11:48:09.921Z,30.74
2022-08-20T11:50:37.196Z,29.95
2022-08-20T11:53:04.664Z,31.18
2022-08-20T11:55:32.565Z,29.93
2022-08-20T11:58:00.950Z,30.16
2022-08-20T12:00:33.460Z,29.84
2022-08-20T12:03:05.524Z,30.36
2022-08-20T12:05:36.352Z,30.49
2022-08-20T12:08:03.770Z,30.10
2022-08-20T12:10:31.255Z,30.16
2022-08-20T12:12:58.767Z,29.88
2022-08-20T12:15:27.251Z,30.20
2022-08-20T12:17:55.480Z,30.45
2022-08-20T12:20:23.807Z,30.30
2022-08-20T12:22:51.246Z,29.70
2022-08-20T12:25:19.148Z,30.40
2022-08-20T12:27:46.573Z,30.61
2022-08-20T12:30:20.656Z,30.29
2022-08-20T12:32:48.387Z,29.79
2022-08-20T12:35:16.872Z,29.88
2022-08-20T12:37:45.111Z,30.10
2022-08-20T12:40:17.709Z,29.85
2022-08-20T12:43:00.619Z,30.23
2022-08-20T12:45:27.969Z,30.28
2022-08-20T12:48:00.255Z,30.07
2022-08-20T12:50:31.409Z,30.45
2022-08-20T12:52:59.722Z,29.88
2022-08-20T12:55:27.029Z,29.26
2022-08-20T12:57:57.205Z,28.75
2022-08-20T13:00:26.528Z,29.33
2022-08-20T13:02:55.192Z,30.02
2022-08-20T13:05:23.297Z,29.16
2022-08-20T13:07:50.691Z,29.80
2022-08-20T13:10:22.707Z,29.50
2022-08-20T13:12:50.280Z,29.99
2022-08-20T13:15:18.036Z,29.51
2022-08-20T13:17:45.645Z,29.56
2022-08-20T13:20:16.653Z,29.82
2022-08-20T13:22:44.827Z,29.21
2022-08-20T13:25:12.637Z,29.67
2022-08-20T13:27:40.931Z,29.35
2022-08-20T13:30:08.723Z,30.08
2022-08-20T13:32:36.140Z,29.07
2022-08-20T13:35:03.777Z,29.68
2022-08-20T13:37:31.157Z,29.27
2022-08-20T13:39:59.042Z,28.95
2022-08-20T13:42:28.745Z,29.58
2022-08-20T13:44:56.141Z,29.16
2022-08-20T13:47:25.142Z,28.34
2022-08-20T13:49:57.397Z,28.25
2022-08-20T13:52:25.609Z,29.17
2022-08-20T13:54:53.727Z,29.31
2022-08-20T13:57:22.992Z,29.15
2022-08-20T13:59:51.533Z,28.11
2022-08-20T14:02:19.342Z,27.48
2022-08-20T14:04:47.461Z,28.26
2022-08-20T14:07:14.805Z,28.12
2022-08-20T14:09:43.149Z,28.49
2022-08-20T14:12:11.093Z,27.08
2022-08-20T14:14:38.367Z,28.16
2022-08-20T14:17:26.883Z,27.83
2022-08-20T14:20:01.838Z,27.61
2022-08-20T14:22:30.654Z,28.13
2022-08-20T14:24:59.650Z,28.77
2022-08-20T14:27:31.147Z,28.49
2022-08-20T14:29:59.366Z,27.90
2022-08-20T14:32:27.322Z,27.99
2022-08-20T14:34:57.133Z,27.94
2022-08-20T14:37:25.894Z,28.41
2022-08-20T14:39:57.037Z,27.17
2022-08-20T14:42:27.096Z,28.49
2022-08-20T14:44:55.483Z,28.82
2022-08-20T14:47:25.090Z,28.86
2022-08-20T14:49:53.449Z,28.09
2022-08-20T14:52:21.984Z,27.98
2022-08-20T14:54:50.448Z,27.35
2022-08-20T14:57:18.271Z,28.79
2022-08-20T14:59:46.129Z,28.67
2022-08-20T15:02:14.373Z,28.93
2022-08-20T15:04:42.192Z,28.38
2022-08-20T15:07:21.661Z,28.01
2022-08-20T15:09:49.861Z,28.09
2022-08-20T15:12:17.171Z,27.89
2022-08-20T15:14:44.632Z,28.78
2022-08-20T15:17:33.725Z,28.20
2022-08-20T15:20:20.296Z,28.99
2022-08-20T15:22:49.185Z,28.44
2022-08-20T15:25:17.434Z,27.91
2022-08-20T15:27:45.841Z,28.34
2022-08-20T15:30:15.595Z,28.82
2022-08-20T15:32:42.878Z,28.76
2022-08-20T15:35:11.473Z,29.40
2022-08-20T15:37:40.808Z,29.00
2022-08-20T15:40:10.103Z,29.44
2022-08-20T15:42:37.677Z,29.60
2022-08-20T15:45:06.535Z,28.77
2022-08-20T15:47:38.111Z,29.89
2022-08-20T15:50:09.369Z,29.75
2022-08-20T15:52:43.723Z,29.08
2022-08-20T15:55:13.294Z,28.34
2022-08-20T15:57:45.295Z,28.28
2022-08-20T16:00:15.575Z,29.13
2022-08-20T16:02:55.087Z,29.26
2022-08-20T16:05:22.826Z,29.21
2022-08-20T16:07:58.801Z,28.54
2022-08-20T16:10:32.343Z,28.23
2022-08-20T16:13:01.145Z,29.46
2022-08-20T16:15:30.269Z,29.38
2022-08-20T16:18:06.088Z,29.31
2022-08-20T16:20:35.919Z,28.58
2022-08-20T16:23:04.359Z,28.03
2022-08-20T16:25:39.078Z,28.77
2022-08-20T16:28:35.832Z,28.39
2022-08-20T16:31:05.660Z,29.33
2022-08-20T16:33:39.161Z,28.37
2022-08-20T16:36:23.793Z,28.44
2022-08-20T16:39:11.532Z,28.49
2022-08-20T16:41:41.613Z,28.30
2022-08-20T16:44:21.461Z,28.93
2022-08-20T16:47:14.064Z,28.90
2022-08-20T16:49:46.462Z,28.57
2022-08-20T16:52:13.950Z,28.42
2022-08-20T16:54:42.681Z,29.35
2022-08-20T16:57:15.108Z,28.24
2022-08-20T16:59:56.497Z,28.58
2022-08-20T17:02:24.069Z,28.77
2022-08-20T17:04:59.253Z,28.87
2022-08-20T17:07:32.510Z,28.75
2022-08-20T17:10:09.029Z,29.31
2022-08-20T17:12:37.497Z,28.69
2022-08-20T17:15:05.389Z,28.33
2022-08-20T17:17:35.900Z,29.07
2022-08-20T17:20:19.915Z,28.76
2022-08-20T17:22:50.198Z,28.74
2022-08-20T17:25:20.351Z,29.04
2022-08-20T17:27:48.284Z,29.03
2022-08-20T17:30:28.912Z,28.38
2022-08-20T17:32:58.466Z,28.11
2022-08-20T17:35:29.175Z,28.63
2022-08-20T17:37:56.995Z,28.54
2022-08-20T17:40:29.780Z,28.24
2022-08-20T17:43:02.106Z,28.95
2022-08-20T17:45:44.614Z,28.68
2022-08-20T17:48:16.737Z,27.98
2022-08-20T17:50:44.198Z,29.08
2022-08-20T17:53:23.431Z,28.88
2022-08-20T17:55:53.448Z,28.79
2022-08-20T17:58:24.994Z,28.72
2022-08-20T18:00:52.420Z,29.09
2022-08-20T18:03:23.783Z,29.29
2022-08-20T18:05:58.579Z,28.45
2022-08-20T18:08:30.574Z,28.77
2022-08-20T18:11:01.749Z,28.89
2022-08-20T18:13:37.568Z,28.75
2022-08-20T18:16:16.921Z,28.99
2022-08-20T18:18:56.506Z,28.73
2022-08-20T18:21:39.925Z,29.23
2022-08-20T18:24:15.746Z,28.99
2022-08-20T18:26:52.191Z,29.44
2022-08-20T18:29:27.970Z,29.03
2022-08-20T18:31:56.301Z,29.43
2022-08-20T18:34:29.581Z,29.81
2022-08-20T18:36:59.949Z,29.85
2022-08-20T18:39:29.644Z,29.82
2022-08-20T18:41:59.297Z,29.90
2022-08-20T18:44:35.238Z,29.64
2022-08-20T18:47:06.362Z,29.66
2022-08-20T18:49:38.014Z,30.19
2022-08-20T18:52:10.225Z,29.85
2022-08-20T18:54:38.149Z,30.32
2022-08-20T18:57:07.627Z,30.18
2022-08-20T18:59:40.735Z,30.84
2022-08-20T19:02:16.490Z,30.76
2022-08-20T19:04:47.025Z,30.86
2022-08-20T19:07:20.442Z,30.43
2022-08-20T19:09:51.002Z,30.58
2022-08-20T19:12:24.444Z,31.04
2022-08-20T19:14:57.507Z,30.66
2022-08-20T19:17:34.060Z,31.32
2022-08-20T19:20:02.658Z,30.81
2022-08-20T19:22:32.521Z,30.92
2022-08-20T19:25:00.690Z,31.10
2022-08-20T19:27:29.485Z,31.20
2022-08-20T19:29:57.893Z,31.52
2022-08-20T19:32:27.440Z,31.00
2022-08-20T19:34:56.873Z,31.24
2022-08-20T19:37:35.110Z,30.88
2022-08-20T19:40:19.390Z,31.18
2022-08-20T19:42:46.782Z,31.39
2022-08-20T19:45:46.722Z,31.13
2022-08-20T19:48:27.295Z,31.25
2022-08-20T19:51:01.140Z,31.35
2022-08-20T19:53:30.916Z,31.00
2022-08-20T19:56:04.658Z,31.35
2022-08-20T19:58:32.954Z,31.41
2022-08-20T20:01:01.359Z,31.11
2022-08-20T20:03:34.041Z,30.93
2022-08-20T20:06:16.796Z,30.96
2022-08-20T20:08:50.424Z,31.04
2022-08-20T20:11:19.989Z,30.83
2022-08-20T20:13:47.426Z,30.83
2022-08-20T20:16:17.245Z,31.14
2022-08-20T20:18:44.882Z,31.11
2022-08-20T20:21:14.900Z,30.55
2022-08-20T20:23:50.452Z,30.17
2022-08-20T20:26:20.003Z,30.70
2022-08-20T20:28:48.563Z,30.51
2022-08-20T20:31:24.240Z,30.39
2022-08-20T20:33:54.376Z,30.16
2022-08-20T20:36:41.496Z,29.64
2022-08-20T20:39:23.327Z,30.11
2022-08-20T20:41:54.487Z,29.81
2022-08-20T20:44:26.579Z,29.94
2022-08-20T20:46:59.191Z,30.20
2022-08-20T20:49:26.689Z,29.89
2022-08-20T20:51:59.371Z,29.77
2022-08-20T20:54:28.841Z,30.10
2022-08-20T20:56:59.484Z,29.66
2022-08-20T20:59:27.144Z,29.20
2022-08-20T21:01:54.509Z,29.66
2022-08-20T21:04:23.141Z,30.05
2022-08-20T21:06:52.195Z,29.40
2022-08-20T21:09:20.416Z,29.93
2022-08-20T21:11:47.812Z,30.35
2022-08-20T21:14:15.207Z,30.10
2022-08-20T21:16:42.828Z,30.03
2022-08-20T21:19:10.841Z,29.81
2022-08-20T21:21:39.781Z,30.43
2022-08-20T21:24:07.345Z,30.27
2022-08-20T21:26:34.855Z,29.97
2022-08-20T21:29:02.437Z,29.96
2022-08-20T21:31:32.618Z,29.99
2022-08-20T21:34:00.365Z,30.53
2022-08-20T21:36:27.721Z,30.47
2022-08-20T21:38:55.108Z,30.69
2022-08-20T21:41:30.044Z,30.72
2022-08-20T21:43:58.986Z,30.22
2022-08-20T21:46:28.887Z,30.74
2022-08-20T21:48:56.207Z,30.63
2022-08-20T21:51:23.496Z,30.69
2022-08-20T21:53:50.973Z,30.75
2022-08-20T21:56:18.601Z,30.59
2022-08-20T21:58:50.297Z,30.44
2022-08-20T22:01:19.405Z,30.44
2022-08-20T22:03:49.488Z,30.44
2022-08-20T22:06:18.371Z,30.48
2022-08-20T22:08:45.618Z,30.40
2022-08-20T22:11:13.655Z,30.38
2022-08-20T22:13:41.147Z,30.50
2022-08-20T22:16:09.827Z,30.45
2022-08-20T22:18:37.376Z,30.78
2022-08-20T22:21:06.932Z,30.52
2022-08-20T22:23:34.365Z,30.65
2022-08-20T22:26:01.650Z,30.45
2022-08-20T22:28:29.053Z,30.95
2022-08-20T22:30:56.373Z,30.36
2022-08-20T22:33:24.285Z,30.90
2022-08-20T22:35:53.289Z,30.42
2022-08-20T22:38:21.217Z,31.26
2022-08-20T22:40:48.632Z,31.02
2022-08-20T22:43:16.480Z,30.96
2022-08-20T22:45:45.638Z,31.33
2022-08-20T22:48:15.673Z,31.39
2022-08-20T22:50:43.268Z,30.98
2022-08-20T22:53:11.407Z,31.34
2022-08-20T22:55:39.036Z,31.44
2022-08-20T22:58:06.374Z,31.65
2022-08-20T23:00:34.547Z,31.17
2022-08-20T23:03:03.169Z,30.99
2022-08-20T23:05:33.046Z,31.64
2022-08-20T23:08:00.805Z,31.66
2022-08-20T23:10:28.716Z,31.36
2022-08-20T23:12:57.507Z,31.80
2022-08-20T23:15:26.336Z,31.45
2022-08-20T23:17:57.005Z,31.81
2022-08-20T23:20:24.347Z,31.58
2022-08-20T23:22:51.708Z,32.09
2022-08-20T23:25:22.301Z,31.86
2022-08-20T23:27:51.007Z,31.21
2022-08-20T23:30:19.146Z,31.53
2022-08-20T23:32:46.746Z,32.21
2022-08-20T23:35:14.502Z,32.16
2022-08-20T23:37:43.526Z,32.49
2022-08-20T23:40:11.661Z,31.73
2022-08-20T23:42:39.077Z,32.09
2022-08-20T23:45:07.106Z,32.07
2022-08-20T23:47:35.057Z,32.41
2022-08-20T23:50:02.735Z,32.45
2022-08-20T23:52:30.456Z,32.18
2022-08-20T23:54:58.331Z,32.43
2022-08-20T23:57:25.587Z,32.42
2022-08-20T23:59:53.286Z,32.80
